Logo AVAMET
Benvolgut visitant, si us plau, ingressa Recuperar contrasenya

Alacant Pla/Garbinet (IES Jaime II)

Dades diàries. Acumulats / Últims 30 dies disponibles

Data Temperatura (°C) Humitat rel. (%) Pressió rel. (hPa) Vent (km/h) Precipitació
Mínima Mitjana Màxima Amplitud
tèrmica
Mínima Mitjana Màxima Mínima Mitjana Màxima Predom. Mitjana Ràfega
màxima
Total
(mm)
Índex-n
Mínima Mitjana Màxima Mínima Mitjana Màxima n
0 a 1
P0 max
mm 5'
Dades mensuals acumulades fins l'últim dia disponible
02/2019 6,0 8,1 12,2 12,5 15,1 17,4 19,4 13,4 26 56 85 993 1.017 1.027   4,6 56,3 1,3
Dades anuals acumulades fins l'últim dia disponible
2019 3,3 8,0 14,0 12,2 12,9 16,9 22,0 18,7 26 59 92 993 1.018 1.032   3,0 68,5 3,9
Últims 30 dies disponibles
06-02-2019 8,1     12,7     17,6 9,5 49 67 75 1.021 1.023 1.025 S 1,2 16,0 0,0
05-02-2019 6,0     11,3     17,6 11,6 35 58 73 1.024 1.025 1.027 O 1,6 20,0 0,0
04-02-2019 6,2     10,4     15,1 8,9 26 42 57 1.025 1.026 1.027 SO 5,9 36,3 0,0
01-02-2019 12,2     15,4     19,4 7,2 31 58 85 993 996 1.001 OSO 9,5 56,3 1,3
31-01-2019 12,6     16,2     22,0 9,4 39 52 63 1.000 1.003 1.007 OSO 7,8 68,5 0,0
30-01-2019 13,7     15,6     17,4 3,7 33 46 58 1.007 1.009 1.011 W 7,1 33,8 0,0
29-01-2019 11,4     15,6     18,2 6,8 42 50 58 1.007 1.012 1.015 WSW 8,2 53,1 0,0
28-01-2019 10,3     14,9     19,9 9,6 26 38 50 1.010 1.013 1.015 W 7,2 40,2 0,0
27-01-2019 10,9     16,6     19,4 8,5 29 39 67 1.009 1.011 1.014 W 7,9 51,5 0,0
26-01-2019 9,4     13,8     18,9 9,5 42 62 82 1.014 1.017 1.019 W 1,4 17,7 0,0
25-01-2019 12,6     16,3     21,3 8,7 36 49 66 1.011 1.012 1.015 W 2,9 27,4 0,0
24-01-2019 14,0     15,8     17,6 3,6 40 46 63 1.001 1.006 1.011 N 5,1 38,6 0,0
23-01-2019 11,2     15,2     18,4 7,2 40 50 60 1.001 1.004 1.009 W 9,0 51,5 0,0
22-01-2019 7,2     10,5     13,6 6,4 38 46 60 1.009 1.014 1.018 N 6,6 38,6 0,0
21-01-2019 8,0     11,4     15,3 7,3 39 56 74 1.014 1.016 1.018 WNW 2,6 19,3 0,0
20-01-2019 8,8     11,7     16,1 7,3 60 74 92 1.006 1.009 1.014 W 1,0 19,3 1,8
19-01-2019 7,8     12,2     16,4 8,6 39 54 72 1.011 1.014 1.017 WNW 2,1 17,7 0,0
18-01-2019 8,2     11,1     14,3 6,1 53 75 89 1.016 1.017 1.019 W 0,3 11,3 0,0
17-01-2019 7,7     11,7     15,6 7,9 50 68 88 1.014 1.015 1.018 ENE 1,1 17,7 0,8
16-01-2019 7,9     11,8     16,1 8,2 61 78 87 1.015 1.018 1.020 SSO 2,9 24,3 0,0
15-01-2019 6,1     11,6     16,4 10,3 56 71 83 1.019 1.020 1.022 E 0,8 16,1 0,0
14-01-2019 6,4     11,7     18,2 11,8 39 62 79 1.016 1.018 1.021 E 0,8 14,5 0,0
13-01-2019 4,6     9,3     15,0 10,4 45 64 81 1.021 1.024 1.027 E 1,0 16,1 0,0
12-01-2019 3,3     8,6     14,1 10,8 41 50 62 1.026 1.027 1.029 WSW 0,6 9,7 0,0
11-01-2019 3,3     8,1     13,3 10,0 29 44 58 1.020 1.023 1.026 N 1,4 16,1 0,0
10-01-2019 5,6     9,9     12,9 7,3 35 49 65 1.013 1.017 1.020 N 1,4 19,3 0,0
09-01-2019 6,9     11,7     18,3 11,4 36 65 79 1.013 1.016 1.020 N 0,8 12,9 0,0
08-01-2019 6,3     10,6     16,6 10,3 51 73 88 1.021 1.026 1.029 WSW 0,6 16,1 0,0
07-01-2019 5,3     10,1     15,7 10,4 44 69 86 1.026 1.027 1.029 N 1,3 19,3 0,0
06-01-2019 5,6     10,9     18,4 12,8 36 54 71 1.026 1.026 1.028 WSW 0,2 6,4 0,0
Últims 13 mesos disponibles
01/2019 3,3 8,0 14,0 12,1 12,9 16,8 22,0 18,7 38 59 78 1.003 1.018 1.030 W 2,8 68,5 2,6
12/2018 6,2 9,7 12,9 13,8 15,4 18,7 24,1 17,9 47 69 85 1.018 1.025 1.030 W 1,4 46,7 7,1
11/2018 7,7 12,4 15,8 15,8 15,4 19,6 22,8 15,1 40 66 85 998 1.015 1.020 W 2,1 49,9 21,9
10/2018 10,0 14,6 20,2 18,2 15,3 21,8 25,1 15,1 40 70 79 998 1.011 1.023 W 2,8 45,1 52,8
09/2018 20,8 22,6 24,8 25,5 26,7 28,5 29,6 8,8 65 74 84 1.010 1.015 1.020 E 2,9 37,0 34,0
08/2018 20,4 23,9 26,7 26,9 28,2 30,1 33,3 12,9 58 70 79 1.012 1.015 1.018 E 3,0 37,0 20,1
07/2018 21,7 23,2 24,9 26,2 25,7 29,3 33,9 12,2 E 2,7 30,6 0,0
06/2018 15,3 20,0 22,8 23,3 23,0 26,6 29,8 14,5 E 2,8 33,8 22,4
05/2018 11,0 16,1 20,3 19,2 17,3 22,4 26,3 15,3 E 3,2 40,2 3,2
04/2018 9,6 13,9 20,1 17,3 16,5 21,1 26,0 16,4 N 4,2 48,3 26,0
03/2018 6,8 11,1 15,2 14,5 13,6 18,4 21,4 14,6 N 4,1 62,8 22,2
02/2018 4,8 8,1 12,6 11,6 10,5 15,5 20,8 16,0 W 2,5 29,0 25,5
01/2018 5,6 9,9 15,9 13,6 13,2 17,9 24,7 19,1 N 3,3 59,5 57,4
Tots els anys disponibles
2018 4,8 15,1 26,7 18,5 10,5 22,2 33,9 29,1 40 70 85 998 1.017 1.030 E 2,9 62,8 292,6
2017 3,5 13,9 27,8 17,4 8,4 21,1 32,9 29,4 47 67 85 1.012 1.016 1.021 E 3,1 67,6 185,0
2016 3,8 15,9 25,6 19,1 12,0 22,7 35,8 32,0 56 69 83 1.013 1.019 1.028 2,8 54,7 208,6
2015 6,5 17,0 27,3 20,3 13,7 24,0 35,3 28,8 30 67 89 1.003 1.019 1.035 E 3,1 46,7 262,6
Temperatura (°C)
Humitat relativa (%)
Velocitat del vent i ràfega màxima (km/h)
Direcció del vent (°)
Pressió (hPa)
Precipitació (mm)
Nota sobre les dades: s'avisa a l'usuari de la provisionalitat i no oficialitat d'aquestes dades
Logo AVAMET blanc
Web allotjada a Sollutia
Llicència de Creative CommonsLa web d'AVAMET i els seus continguts estan subjectes a una llicència de
Reconeixement - No Comercial - Compartir igual
Properes estacions: Altea - Club Nàutic d'Altea (Soci), Ares del Maestrat (Ajuntament Soci),      - - - - -      Últimes estacions: Catadau - Urb. Lloma Molina (Inforatge), Ontinyent - El Pilar (Soci) - - -